createdAt,value
2023-05-17T00:01:56.608Z,102263.81
2023-05-17T00:04:23.738Z,102266.38
2023-05-17T00:06:50.891Z,102261.94
2023-05-17T00:09:18.022Z,102267.09
2023-05-17T00:11:45.281Z,102266.09
2023-05-17T00:14:12.818Z,102265.16
2023-05-17T00:16:39.901Z,102267.72
2023-05-17T00:19:07.063Z,102268.53
2023-05-17T00:21:35.416Z,102269.28
2023-05-17T00:24:02.586Z,102271.00
2023-05-17T00:26:29.715Z,102269.19
2023-05-17T00:28:56.732Z,102260.28
2023-05-17T00:31:23.745Z,102270.72
2023-05-17T00:33:50.850Z,102268.91
2023-05-17T00:36:17.857Z,102269.63
2023-05-17T00:38:44.997Z,102265.25
2023-05-17T00:41:13.043Z,102271.28
2023-05-17T00:43:40.418Z,102256.41
2023-05-17T00:46:07.565Z,102260.69
2023-05-17T00:48:34.911Z,102275.50
2023-05-17T00:51:02.238Z,102278.06
2023-05-17T00:53:30.377Z,102278.03
2023-05-17T00:55:57.555Z,102276.25
2023-05-17T00:58:25.158Z,102274.38
2023-05-17T01:00:52.925Z,102280.47
2023-05-17T01:03:22.575Z,102277.78
2023-05-17T01:05:51.338Z,102275.06
2023-05-17T01:08:18.392Z,102271.56
2023-05-17T01:11:19.408Z,102274.94
2023-05-17T01:14:03.007Z,102267.00
2023-05-17T01:17:20.561Z,102273.03
2023-05-17T01:20:09.305Z,102271.19
2023-05-17T01:22:57.380Z,102261.50
2023-05-17T01:25:59.025Z,102276.28
2023-05-17T01:28:27.608Z,102273.53
2023-05-17T01:30:55.918Z,102270.88
2023-05-17T01:33:23.536Z,102265.50
2023-05-17T01:35:50.594Z,102262.00
2023-05-17T01:38:17.739Z,102259.19
2023-05-17T01:41:31.076Z,102261.72
2023-05-17T01:44:13.663Z,102264.22
2023-05-17T01:46:43.845Z,102269.38
2023-05-17T01:49:29.945Z,102271.94
2023-05-17T01:52:12.236Z,102264.81
2023-05-17T01:54:56.225Z,102265.66
2023-05-17T01:57:32.570Z,102266.38
2023-05-17T02:00:02.319Z,102266.25
2023-05-17T02:02:32.508Z,102263.53
2023-05-17T02:04:59.692Z,102272.19
2023-05-17T02:07:26.872Z,102269.47
2023-05-17T02:09:53.911Z,102270.22
2023-05-17T02:12:21.068Z,102267.44
2023-05-17T02:14:48.293Z,102260.38
2023-05-17T02:17:15.473Z,102267.28
2023-05-17T02:19:42.578Z,102268.13
2023-05-17T02:22:09.620Z,102278.47
2023-05-17T02:24:36.813Z,102277.53
2023-05-17T02:27:04.532Z,102279.16
2023-05-17T02:29:31.836Z,102279.94
2023-05-17T02:31:58.959Z,102281.59
2023-05-17T02:34:26.658Z,102286.75
2023-05-17T02:36:53.895Z,102287.53
2023-05-17T02:39:20.979Z,102283.06
2023-05-17T02:41:48.119Z,102282.97
2023-05-17T02:44:15.188Z,102278.56
2023-05-17T02:46:42.296Z,102283.66
2023-05-17T02:49:09.378Z,102275.75
2023-05-17T02:51:36.379Z,102274.81
2023-05-17T02:54:03.430Z,102282.63
2023-05-17T02:56:31.052Z,102295.72
2023-05-17T02:58:59.757Z,102299.22
2023-05-17T03:01:27.685Z,102306.19
2023-05-17T03:03:54.924Z,102304.47
2023-05-17T03:06:22.166Z,102301.88
2023-05-17T03:08:49.269Z,102306.34
2023-05-17T03:11:16.347Z,102297.72
2023-05-17T03:13:43.560Z,102303.13
2023-05-17T03:16:10.717Z,102305.97
2023-05-17T03:18:37.985Z,102300.88
2023-05-17T03:21:05.060Z,102303.72
2023-05-17T03:23:32.119Z,102308.34
2023-05-17T03:25:59.514Z,102323.47
2023-05-17T03:28:26.934Z,102317.56
2023-05-17T03:30:54.840Z,102315.97
2023-05-17T03:33:22.117Z,102317.03
2023-05-17T03:35:49.369Z,102316.34
2023-05-17T03:38:16.962Z,102326.16
2023-05-17T03:40:44.158Z,102321.94
2023-05-17T03:43:14.557Z,102334.38
2023-05-17T03:45:46.380Z,102332.78
2023-05-17T03:48:13.785Z,102338.19
2023-05-17T03:50:43.813Z,102335.75
2023-05-17T03:53:11.075Z,102335.06
2023-05-17T03:55:38.240Z,102329.88
2023-05-17T03:58:05.316Z,102330.94
2023-05-17T04:00:32.584Z,102333.75
2023-05-17T04:02:59.819Z,102337.41
2023-05-17T04:05:27.241Z,102335.06
2023-05-17T04:07:54.835Z,102337.00
2023-05-17T04:10:22.464Z,102334.59
2023-05-17T04:12:50.066Z,102330.56
2023-05-17T04:15:17.155Z,102341.44
2023-05-17T04:17:44.316Z,102342.56
2023-05-17T04:20:12.477Z,102349.88
2023-05-17T04:22:39.803Z,102352.78
2023-05-17T04:25:08.362Z,102351.44
2023-05-17T04:27:35.957Z,102360.50
2023-05-17T04:30:04.389Z,102358.09
2023-05-17T04:32:34.301Z,102362.63
2023-05-17T04:35:02.007Z,102363.75
2023-05-17T04:37:29.085Z,102358.81
2023-05-17T04:39:56.404Z,102360.91
2023-05-17T04:42:23.640Z,102361.16
2023-05-17T04:44:50.769Z,102374.47
2023-05-17T04:47:18.921Z,102376.25
2023-05-17T04:49:46.081Z,102380.81
2023-05-17T04:52:13.203Z,102377.53
2023-05-17T04:54:40.639Z,102377.78
2023-05-17T04:57:07.885Z,102393.78
2023-05-17T04:59:34.976Z,102387.81
2023-05-17T05:02:02.022Z,102391.50
2023-05-17T05:04:29.107Z,102388.19
2023-05-17T05:06:56.182Z,102391.00
2023-05-17T05:09:23.263Z,102403.47
2023-05-17T05:11:50.302Z,102398.34
2023-05-17T05:14:17.378Z,102402.09
2023-05-17T05:16:44.485Z,102401.41
2023-05-17T05:19:11.797Z,102402.38
2023-05-17T05:21:38.985Z,102400.75
2023-05-17T05:24:06.392Z,102407.06
2023-05-17T05:26:33.554Z,102406.31
2023-05-17T05:29:00.614Z,102409.13
2023-05-17T05:31:28.263Z,102411.91
2023-05-17T05:33:55.472Z,102410.31
2023-05-17T05:36:22.549Z,102414.94
2023-05-17T05:38:50.073Z,102412.50
2023-05-17T05:41:17.174Z,102419.91
2023-05-17T05:43:44.195Z,102420.06
2023-05-17T05:46:11.295Z,102430.78
2023-05-17T05:48:41.861Z,102430.13
2023-05-17T05:51:09.250Z,102438.22
2023-05-17T05:53:36.712Z,102434.88
2023-05-17T05:56:04.572Z,102441.25
2023-05-17T05:58:32.408Z,102440.59
2023-05-17T06:01:00.355Z,102443.34
2023-05-17T06:03:27.572Z,102447.78
2023-05-17T06:05:55.592Z,102449.66
2023-05-17T06:08:22.783Z,102450.69
2023-05-17T06:10:49.934Z,102453.50
2023-05-17T06:13:17.020Z,102462.56
2023-05-17T06:15:44.126Z,102463.72
2023-05-17T06:18:11.397Z,102468.19
2023-05-17T06:20:38.475Z,102469.28
2023-05-17T06:23:06.706Z,102473.88
2023-05-17T06:25:33.776Z,102477.69
2023-05-17T06:28:03.010Z,102484.22
2023-05-17T06:30:31.293Z,102479.91
2023-05-17T06:32:58.853Z,102485.44
2023-05-17T06:35:26.394Z,102483.00
2023-05-17T06:37:53.612Z,102478.63
2023-05-17T06:40:21.130Z,102484.69
2023-05-17T06:42:48.326Z,102492.56
2023-05-17T06:45:15.497Z,102489.97
2023-05-17T06:47:42.856Z,102494.44
2023-05-17T06:50:10.572Z,102497.13
2023-05-17T06:52:37.736Z,102502.13
2023-05-17T06:55:05.806Z,102500.59
2023-05-17T06:57:32.940Z,102504.22
2023-05-17T06:59:59.952Z,102508.63
2023-05-17T07:02:26.949Z,102502.13
2023-05-17T07:04:54.099Z,102511.69
2023-05-17T07:07:22.174Z,102510.94
2023-05-17T07:09:49.309Z,102511.78
2023-05-17T07:12:16.446Z,102506.56
2023-05-17T07:14:43.595Z,102510.13
2023-05-17T07:17:11.876Z,102511.81
2023-05-17T07:19:39.052Z,102515.34
2023-05-17T07:22:06.501Z,102519.72
2023-05-17T07:24:33.616Z,102517.09
2023-05-17T07:27:00.670Z,102519.97
2023-05-17T07:29:27.871Z,102523.53
2023-05-17T07:31:54.907Z,102521.84
2023-05-17T07:34:22.003Z,102523.72
2023-05-17T07:36:49.133Z,102530.47
2023-05-17T07:39:16.325Z,102537.88
2023-05-17T07:41:43.434Z,102534.66
2023-05-17T07:44:10.627Z,102549.81
2023-05-17T07:46:37.640Z,102538.38
2023-05-17T07:49:05.170Z,102554.47
2023-05-17T07:51:32.316Z,102550.13
2023-05-17T07:53:59.441Z,102553.72
2023-05-17T07:56:26.528Z,102560.91
2023-05-17T07:58:53.588Z,102572.47
2023-05-17T08:01:20.627Z,102569.84
2023-05-17T08:03:48.380Z,102564.50
2023-05-17T08:06:17.080Z,102568.81
2023-05-17T08:08:44.974Z,102573.03
2023-05-17T08:11:13.620Z,102566.00
2023-05-17T08:13:40.715Z,102572.41
2023-05-17T08:16:14.008Z,102579.47
2023-05-17T08:18:43.451Z,102569.66
2023-05-17T08:21:11.457Z,102575.75
2023-05-17T08:23:39.343Z,102564.91
2023-05-17T08:26:06.880Z,102573.50
2023-05-17T08:28:34.072Z,102575.00
2023-05-17T08:31:01.258Z,102567.78
2023-05-17T08:33:28.635Z,102571.38
2023-05-17T08:35:58.052Z,102572.16
2023-05-17T08:38:25.280Z,102566.06
2023-05-17T08:40:56.843Z,102569.69
2023-05-17T08:43:27.550Z,102568.38
2023-05-17T08:45:57.916Z,102572.81
2023-05-17T08:48:27.622Z,102578.94
2023-05-17T08:50:55.984Z,102574.72
2023-05-17T08:53:23.782Z,102573.94
2023-05-17T08:55:53.832Z,102569.59
2023-05-17T08:58:26.882Z,102576.78
2023-05-17T09:00:56.241Z,102572.44
2023-05-17T09:03:25.179Z,102576.94
2023-05-17T09:05:53.806Z,102570.78
2023-05-17T09:08:23.151Z,102566.41
2023-05-17T09:10:50.769Z,102572.69
2023-05-17T09:13:17.986Z,102572.69
2023-05-17T09:15:48.305Z,102578.88
2023-05-17T09:18:18.603Z,102569.16
2023-05-17T09:20:51.863Z,102578.00
2023-05-17T09:23:22.387Z,102579.78
2023-05-17T09:25:49.919Z,102581.50
2023-05-17T09:28:22.052Z,102584.06
2023-05-17T09:30:50.169Z,102575.09
2023-05-17T09:33:21.898Z,102581.38
2023-05-17T09:35:49.079Z,102574.31
2023-05-17T09:38:16.264Z,102569.00
2023-05-17T09:40:48.490Z,102562.88
2023-05-17T09:43:23.076Z,102565.53
2023-05-17T09:45:57.816Z,102569.13
2023-05-17T09:48:30.905Z,102569.13
2023-05-17T09:50:58.062Z,102559.34
2023-05-17T09:53:32.916Z,102572.69
2023-05-17T09:56:03.103Z,102559.34
2023-05-17T09:58:33.388Z,102575.34
2023-05-17T10:01:08.589Z,102567.34
2023-05-17T10:03:37.654Z,102555.78
2023-05-17T10:06:13.282Z,102557.56
2023-05-17T10:08:46.457Z,102564.69
2023-05-17T10:11:14.044Z,102568.25
2023-05-17T10:14:15.491Z,102564.66
2023-05-17T10:16:43.386Z,102569.13
2023-05-17T10:19:14.797Z,102563.75
2023-05-17T10:21:43.262Z,102568.16
2023-05-17T10:24:11.456Z,102562.88
2023-05-17T10:26:40.144Z,102569.13
2023-05-17T10:29:08.029Z,102567.31
2023-05-17T10:31:36.569Z,102565.53
2023-05-17T10:34:08.853Z,102573.53
2023-05-17T10:36:36.460Z,102561.91
2023-05-17T10:39:09.663Z,102562.72
2023-05-17T10:41:44.420Z,102557.31
2023-05-17T10:44:16.200Z,102551.16
2023-05-17T10:46:56.161Z,102553.88
2023-05-17T10:49:37.135Z,102551.22
2023-05-17T10:52:16.463Z,102547.69
2023-05-17T10:54:45.625Z,102545.78
2023-05-17T10:57:50.549Z,102536.78
2023-05-17T11:00:28.053Z,102535.78
2023-05-17T11:03:30.154Z,102538.44
2023-05-17T11:06:24.457Z,102535.19
2023-05-17T11:09:18.754Z,102537.97
2023-05-17T11:12:07.650Z,102539.72
2023-05-17T11:14:53.305Z,102537.06
2023-05-17T11:17:24.506Z,102529.00
2023-05-17T11:19:55.008Z,102524.50
2023-05-17T11:22:26.815Z,102527.13
2023-05-17T11:24:57.731Z,102532.41
2023-05-17T11:27:28.790Z,102544.06
2023-05-17T11:29:57.598Z,102539.56
2023-05-17T11:32:32.810Z,102525.28
2023-05-17T11:35:03.557Z,102520.78
2023-05-17T11:37:31.483Z,102527.00
2023-05-17T11:40:07.164Z,102532.47
2023-05-17T11:42:38.373Z,102529.88
2023-05-17T11:45:07.239Z,102518.28
2023-05-17T11:47:38.730Z,102526.25
2023-05-17T11:50:06.829Z,102518.16
2023-05-17T11:52:34.923Z,102515.47
2023-05-17T11:55:02.895Z,102525.22
2023-05-17T11:57:31.788Z,102518.13
2023-05-17T12:00:05.124Z,102518.13
2023-05-17T12:02:33.175Z,102512.81
2023-05-17T12:05:00.552Z,102521.72
2023-05-17T12:07:28.633Z,102519.00
2023-05-17T12:09:55.740Z,102518.06
2023-05-17T12:12:23.684Z,102507.34
2023-05-17T12:14:51.046Z,102519.72
2023-05-17T12:17:38.659Z,102517.84
2023-05-17T12:20:10.554Z,102518.56
2023-05-17T12:22:57.193Z,102518.34
2023-05-17T12:25:29.732Z,102503.00
2023-05-17T12:28:22.267Z,102509.06
2023-05-17T12:30:56.017Z,102504.69
2023-05-17T12:33:23.523Z,102522.94
2023-05-17T12:35:51.565Z,102514.19
2023-05-17T12:38:19.895Z,102513.34
2023-05-17T12:40:47.490Z,102517.78
2023-05-17T12:43:14.579Z,102511.56
2023-05-17T12:45:44.758Z,102513.34
2023-05-17T12:48:11.885Z,102515.13
2023-05-17T12:50:44.495Z,102509.75
2023-05-17T12:53:11.807Z,102508.81
2023-05-17T12:55:41.085Z,102503.38
2023-05-17T12:58:09.186Z,102493.59
2023-05-17T13:00:36.625Z,102513.09
2023-05-17T13:03:10.904Z,102505.09
2023-05-17T13:05:39.862Z,102506.94
2023-05-17T13:08:20.958Z,102504.28
2023-05-17T13:10:48.028Z,102502.50
2023-05-17T13:13:22.778Z,102509.69
2023-05-17T13:15:50.508Z,102500.81
2023-05-17T13:18:18.318Z,102495.47
2023-05-17T13:20:45.501Z,102497.16
2023-05-17T13:23:14.840Z,102502.41
2023-05-17T13:25:41.854Z,102499.75
2023-05-17T13:28:08.962Z,102501.50
2023-05-17T13:30:37.433Z,102505.91
2023-05-17T13:33:05.246Z,102493.47
2023-05-17T13:35:32.383Z,102491.72
2023-05-17T13:37:59.396Z,102497.16
2023-05-17T13:40:26.622Z,102496.34
2023-05-17T13:42:53.847Z,102492.78
2023-05-17T13:45:20.868Z,102488.31
2023-05-17T13:47:48.112Z,102489.16
2023-05-17T13:50:17.479Z,102474.91
2023-05-17T13:52:44.593Z,102473.97
2023-05-17T13:55:11.634Z,102496.13
2023-05-17T13:57:38.701Z,102486.31
2023-05-17T14:00:06.961Z,102494.34
2023-05-17T14:02:34.090Z,102485.44
2023-05-17T14:05:01.782Z,102487.25
2023-05-17T14:07:29.259Z,102487.25
2023-05-17T14:09:56.360Z,102491.72
2023-05-17T14:12:23.549Z,102486.28
2023-05-17T14:14:50.774Z,102496.94
2023-05-17T14:17:18.947Z,102505.00
2023-05-17T14:19:46.337Z,102496.13
2023-05-17T14:22:13.964Z,102496.13
2023-05-17T14:24:41.110Z,102505.88
2023-05-17T14:27:08.380Z,102499.69
2023-05-17T14:29:35.537Z,102499.72
2023-05-17T14:32:03.264Z,102499.81
2023-05-17T14:34:31.092Z,102507.03
2023-05-17T14:36:58.286Z,102493.69
2023-05-17T14:39:26.287Z,102497.16
2023-05-17T14:41:53.323Z,102503.31
2023-05-17T14:44:20.415Z,102506.00
2023-05-17T14:46:47.529Z,102490.75
2023-05-17T14:49:14.933Z,102494.03
2023-05-17T14:51:42.761Z,102493.66
2023-05-17T14:54:11.124Z,102489.75
2023-05-17T14:56:39.353Z,102485.75
2023-05-17T14:59:06.664Z,102490.69
2023-05-17T15:01:33.996Z,102490.19
2023-05-17T15:04:01.916Z,102482.41
2023-05-17T15:06:30.292Z,102489.91
2023-05-17T15:08:57.575Z,102507.22
2023-05-17T15:11:25.962Z,102499.56
2023-05-17T15:13:53.361Z,102497.28
2023-05-17T15:16:21.054Z,102496.97
2023-05-17T15:18:48.627Z,102502.34
2023-05-17T15:21:20.001Z,102496.06
2023-05-17T15:23:50.126Z,102493.25
2023-05-17T15:26:17.619Z,102475.97
2023-05-17T15:28:44.699Z,102503.16
2023-05-17T15:31:11.770Z,102492.97
2023-05-17T15:33:40.294Z,102492.31
2023-05-17T15:36:07.919Z,102481.16
2023-05-17T15:38:35.261Z,102504.13
2023-05-17T15:41:07.582Z,102495.03
2023-05-17T15:43:35.549Z,102485.69
2023-05-17T15:46:02.826Z,102486.19
2023-05-17T15:48:30.228Z,102492.25
2023-05-17T15:50:58.310Z,102501.09
2023-05-17T15:53:27.398Z,102493.75
2023-05-17T15:55:55.090Z,102491.47
2023-05-17T15:58:27.939Z,102495.47
2023-05-17T16:00:56.066Z,102494.31
2023-05-17T16:03:23.146Z,102492.66
2023-05-17T16:05:50.321Z,102496.28
2023-05-17T16:08:17.685Z,102502.13
2023-05-17T16:10:45.220Z,102501.13
2023-05-17T16:13:14.397Z,102503.56
2023-05-17T16:15:41.639Z,102494.13
2023-05-17T16:18:10.780Z,102497.81
2023-05-17T16:20:38.070Z,102488.84
2023-05-17T16:23:06.329Z,102490.31
2023-05-17T16:25:34.363Z,102493.81
2023-05-17T16:28:01.683Z,102487.53
2023-05-17T16:30:29.406Z,102490.94
2023-05-17T16:32:56.621Z,102488.88
2023-05-17T16:35:23.928Z,102499.66
2023-05-17T16:37:51.494Z,102496.53
2023-05-17T16:40:18.622Z,102501.34
2023-05-17T16:42:45.811Z,102498.13
2023-05-17T16:45:12.822Z,102495.03
2023-05-17T16:47:40.076Z,102497.56
2023-05-17T16:50:07.966Z,102492.31
2023-05-17T16:52:35.063Z,102502.63
2023-05-17T16:55:04.232Z,102500.47
2023-05-17T16:57:31.991Z,102501.72
2023-05-17T17:00:01.468Z,102503.50
2023-05-17T17:02:28.917Z,102499.97
2023-05-17T17:04:58.627Z,102503.28
2023-05-17T17:07:27.059Z,102510.53
2023-05-17T17:09:54.267Z,102498.94
2023-05-17T17:12:25.339Z,102500.66
2023-05-17T17:14:54.311Z,102492.69
2023-05-17T17:17:22.083Z,102498.09
2023-05-17T17:19:49.268Z,102502.16
2023-05-17T17:22:17.095Z,102502.00
2023-05-17T17:24:45.593Z,102504.16
2023-05-17T17:27:12.698Z,102500.69
2023-05-17T17:29:39.787Z,102500.44
2023-05-17T17:32:08.275Z,102510.75
2023-05-17T17:34:35.659Z,102517.31
2023-05-17T17:37:02.815Z,102516.09
2023-05-17T17:39:29.939Z,102505.03
2023-05-17T17:41:57.000Z,102512.75
2023-05-17T17:44:24.682Z,102502.28
2023-05-17T17:46:51.991Z,102516.34
2023-05-17T17:49:19.172Z,102513.91
2023-05-17T17:51:46.402Z,102515.47
2023-05-17T17:54:13.608Z,102505.50
2023-05-17T17:56:41.873Z,102509.16
2023-05-17T17:59:09.106Z,102503.69
2023-05-17T18:01:37.622Z,102503.38
2023-05-17T18:04:06.384Z,102507.09
2023-05-17T18:06:33.895Z,102508.13
2023-05-17T18:09:00.946Z,102502.97
2023-05-17T18:11:28.151Z,102505.31
2023-05-17T18:13:55.743Z,102507.81
2023-05-17T18:16:22.792Z,102506.19
2023-05-17T18:18:49.859Z,102503.38
2023-05-17T18:21:17.254Z,102501.22
2023-05-17T18:23:44.325Z,102496.38
2023-05-17T18:26:12.758Z,102496.69
2023-05-17T18:28:42.844Z,102496.81
2023-05-17T18:31:10.714Z,102501.44
2023-05-17T18:33:37.841Z,102497.22
2023-05-17T18:36:05.583Z,102498.28
2023-05-17T18:38:32.665Z,102493.09
2023-05-17T18:40:59.689Z,102499.47
2023-05-17T18:43:29.202Z,102496.97
2023-05-17T18:45:56.394Z,102492.63
2023-05-17T18:48:24.670Z,102495.28
2023-05-17T18:50:51.875Z,102492.72
2023-05-17T18:53:19.084Z,102493.66
2023-05-17T18:55:46.204Z,102499.00
2023-05-17T18:58:13.449Z,102498.16
2023-05-17T19:00:40.755Z,102505.25
2023-05-17T19:03:07.996Z,102500.84
2023-05-17T19:05:35.179Z,102499.03
2023-05-17T19:08:03.783Z,102508.78
2023-05-17T19:10:31.186Z,102510.56
2023-05-17T19:12:58.450Z,102514.97
2023-05-17T19:15:25.772Z,102514.94
2023-05-17T19:17:53.193Z,102518.44
2023-05-17T19:20:20.650Z,102516.63
2023-05-17T19:22:47.843Z,102511.28
2023-05-17T19:25:16.529Z,102515.66
2023-05-17T19:27:44.483Z,102518.28
2023-05-17T19:30:12.563Z,102516.47
2023-05-17T19:32:40.125Z,102520.84
2023-05-17T19:35:08.021Z,102519.91
2023-05-17T19:37:35.122Z,102523.41
2023-05-17T19:40:05.184Z,102522.50
2023-05-17T19:42:32.373Z,102524.22
2023-05-17T19:44:59.430Z,102525.06
2023-05-17T19:47:26.617Z,102529.44
2023-05-17T19:49:53.772Z,102525.84
2023-05-17T19:52:21.185Z,102526.69
2023-05-17T19:54:48.265Z,102526.63
2023-05-17T19:57:15.275Z,102531.00
2023-05-17T19:59:42.397Z,102536.25
2023-05-17T20:02:09.930Z,102541.44
2023-05-17T20:04:37.037Z,102533.41
2023-05-17T20:07:04.152Z,102535.16
2023-05-17T20:09:32.213Z,102533.28
2023-05-17T20:11:59.529Z,102535.88
2023-05-17T20:14:27.689Z,102542.00
2023-05-17T20:16:55.108Z,102537.53
2023-05-17T20:19:22.474Z,102538.34
2023-05-17T20:21:49.676Z,102542.69
2023-05-17T20:24:16.804Z,102538.22
2023-05-17T20:26:46.800Z,102538.13
2023-05-17T20:29:13.962Z,102531.88
2023-05-17T20:31:41.162Z,102527.38
2023-05-17T20:34:08.298Z,102524.69
2023-05-17T20:36:35.553Z,102529.03
2023-05-17T20:39:03.900Z,102529.81
2023-05-17T20:41:31.034Z,102524.44
2023-05-17T20:43:58.196Z,102524.38
2023-05-17T20:46:25.647Z,102523.34
2023-05-17T20:48:53.708Z,102529.41
2023-05-17T20:51:22.397Z,102529.28
2023-05-17T20:53:49.576Z,102530.97
2023-05-17T20:56:19.292Z,102529.97
2023-05-17T20:58:48.943Z,102536.00
2023-05-17T21:01:16.152Z,102533.25
2023-05-17T21:03:43.811Z,102534.97
2023-05-17T21:06:11.030Z,102543.69
2023-05-17T21:08:38.510Z,102541.88
2023-05-17T21:11:05.677Z,102545.31
2023-05-17T21:13:32.816Z,102536.44
2023-05-17T21:15:59.972Z,102535.47
2023-05-17T21:18:28.497Z,102533.59
2023-05-17T21:20:55.677Z,102539.69
2023-05-17T21:23:22.789Z,102544.00
2023-05-17T21:25:49.876Z,102538.63
2023-05-17T21:28:17.005Z,102533.25
2023-05-17T21:30:44.318Z,102530.50
2023-05-17T21:33:11.484Z,102536.63
2023-05-17T21:35:38.642Z,102540.09
2023-05-17T21:38:05.712Z,102535.53
2023-05-17T21:40:33.214Z,102537.25
2023-05-17T21:43:00.596Z,102531.84
2023-05-17T21:45:28.882Z,102536.16
2023-05-17T21:47:56.308Z,102529.03
2023-05-17T21:50:27.209Z,102525.38
2023-05-17T21:52:54.450Z,102536.75
2023-05-17T21:55:21.944Z,102527.00
2023-05-17T21:57:49.168Z,102529.56
2023-05-17T22:00:16.630Z,102532.94
2023-05-17T22:02:45.201Z,102531.06
2023-05-17T22:05:13.176Z,102524.81
2023-05-17T22:07:40.740Z,102531.78
2023-05-17T22:10:10.007Z,102522.03
2023-05-17T22:12:38.392Z,102524.56
2023-05-17T22:15:06.552Z,102530.63
2023-05-17T22:17:43.227Z,102523.47
2023-05-17T22:20:19.666Z,102528.56
2023-05-17T22:22:46.817Z,102518.84
2023-05-17T22:25:15.620Z,102532.75
2023-05-17T22:27:42.865Z,102533.53
2023-05-17T22:30:10.547Z,102536.13
2023-05-17T22:32:37.766Z,102536.91
2023-05-17T22:35:05.702Z,102533.28
2023-05-17T22:37:33.017Z,102528.75
2023-05-17T22:40:00.131Z,102538.38
2023-05-17T22:42:28.399Z,102534.72
2023-05-17T22:44:55.845Z,102536.41
2023-05-17T22:47:23.343Z,102541.53
2023-05-17T22:49:52.550Z,102533.56
2023-05-17T22:52:20.063Z,102544.84
2023-05-17T22:54:47.317Z,102536.84
2023-05-17T22:57:14.602Z,102540.19
2023-05-17T22:59:43.916Z,102539.22
2023-05-17T23:02:12.340Z,102536.44
2023-05-17T23:04:40.492Z,102543.38
2023-05-17T23:07:09.972Z,102539.72
2023-05-17T23:09:40.876Z,102534.34
2023-05-17T23:12:09.067Z,102539.50
2023-05-17T23:14:36.857Z,102534.94
2023-05-17T23:17:05.224Z,102532.22
2023-05-17T23:19:35.877Z,102537.38
2023-05-17T23:22:04.053Z,102541.66
2023-05-17T23:24:31.525Z,102533.63
2023-05-17T23:26:58.874Z,102539.66
2023-05-17T23:29:27.639Z,102533.41
2023-05-17T23:31:54.768Z,102538.59
2023-05-17T23:34:22.182Z,102533.19
2023-05-17T23:36:49.214Z,102543.66
2023-05-17T23:39:16.407Z,102544.44
2023-05-17T23:41:43.647Z,102535.53
2023-05-17T23:44:11.294Z,102533.72
2023-05-17T23:46:38.394Z,102535.31
2023-05-17T23:49:05.910Z,102540.50
2023-05-17T23:51:34.865Z,102535.06
2023-05-17T23:54:02.344Z,102533.22
2023-05-17T23:56:29.516Z,102534.88
2023-05-17T23:58:56.532Z,102533.88
